sensor_id;sensor_type;location;lat;lon;timestamp;P1;durP1;ratioP1;P2;durP2;ratioP2
7529;SDS011;3806;52.270;10.544;2022-07-19T00:02:09;4.15;;;1.80;;
7529;SDS011;3806;52.270;10.544;2022-07-19T00:04:34;4.80;;;2.10;;
7529;SDS011;3806;52.270;10.544;2022-07-19T00:07:00;3.90;;;2.05;;
7529;SDS011;3806;52.270;10.544;2022-07-19T00:09:27;4.38;;;1.95;;
7529;SDS011;3806;52.270;10.544;2022-07-19T00:11:53;5.90;;;1.92;;
7529;SDS011;3806;52.270;10.544;2022-07-19T00:14:19;3.03;;;1.83;;
7529;SDS011;3806;52.270;10.544;2022-07-19T00:16:45;4.65;;;2.50;;
7529;SDS011;3806;52.270;10.544;2022-07-19T00:19:11;2.88;;;1.75;;
7529;SDS011;3806;52.270;10.544;2022-07-19T00:21:37;3.92;;;1.65;;
7529;SDS011;3806;52.270;10.544;2022-07-19T00:24:02;4.32;;;2.28;;
7529;SDS011;3806;52.270;10.544;2022-07-19T00:26:28;5.53;;;1.80;;
7529;SDS011;3806;52.270;10.544;2022-07-19T00:28:54;6.18;;;2.28;;
7529;SDS011;3806;52.270;10.544;2022-07-19T00:31:21;5.55;;;2.00;;
7529;SDS011;3806;52.270;10.544;2022-07-19T00:33:47;6.28;;;1.95;;
7529;SDS011;3806;52.270;10.544;2022-07-19T00:36:13;3.88;;;1.63;;
7529;SDS011;3806;52.270;10.544;2022-07-19T00:38:38;4.28;;;1.90;;
7529;SDS011;3806;52.270;10.544;2022-07-19T00:41:04;4.28;;;1.90;;
7529;SDS011;3806;52.270;10.544;2022-07-19T00:43:30;5.10;;;2.28;;
7529;SDS011;3806;52.270;10.544;2022-07-19T00:45:56;3.38;;;2.05;;
7529;SDS011;3806;52.270;10.544;2022-07-19T00:48:22;9.40;;;1.85;;
7529;SDS011;3806;52.270;10.544;2022-07-19T00:50:48;4.30;;;1.90;;
7529;SDS011;3806;52.270;10.544;2022-07-19T00:53:14;4.35;;;1.60;;
7529;SDS011;3806;52.270;10.544;2022-07-19T00:55:40;4.35;;;2.03;;
7529;SDS011;3806;52.270;10.544;2022-07-19T00:58:06;4.20;;;1.77;;
7529;SDS011;3806;52.270;10.544;2022-07-19T01:00:34;3.50;;;1.90;;
7529;SDS011;3806;52.270;10.544;2022-07-19T01:03:00;3.90;;;2.30;;
7529;SDS011;3806;52.270;10.544;2022-07-19T01:05:26;6.90;;;2.60;;
7529;SDS011;3806;52.270;10.544;2022-07-19T01:07:52;7.07;;;2.20;;
7529;SDS011;3806;52.270;10.544;2022-07-19T01:10:18;11.70;;;1.95;;
7529;SDS011;3806;52.270;10.544;2022-07-19T01:12:44;6.75;;;1.90;;
7529;SDS011;3806;52.270;10.544;2022-07-19T01:15:16;6.90;;;1.80;;
7529;SDS011;3806;52.270;10.544;2022-07-19T01:17:44;4.47;;;2.50;;
7529;SDS011;3806;52.270;10.544;2022-07-19T01:20:10;3.30;;;1.60;;
7529;SDS011;3806;52.270;10.544;2022-07-19T01:22:37;5.25;;;2.20;;
7529;SDS011;3806;52.270;10.544;2022-07-19T01:25:03;3.67;;;2.28;;
7529;SDS011;3806;52.270;10.544;2022-07-19T01:27:29;4.57;;;2.45;;
7529;SDS011;3806;52.270;10.544;2022-07-19T01:29:55;6.18;;;2.45;;
7529;SDS011;3806;52.270;10.544;2022-07-19T01:32:21;8.13;;;1.95;;
7529;SDS011;3806;52.270;10.544;2022-07-19T01:34:46;4.88;;;2.10;;
7529;SDS011;3806;52.270;10.544;2022-07-19T01:37:12;8.70;;;2.20;;
7529;SDS011;3806;52.270;10.544;2022-07-19T01:39:37;4.57;;;2.60;;
7529;SDS011;3806;52.270;10.544;2022-07-19T01:42:03;4.93;;;2.03;;
7529;SDS011;3806;52.270;10.544;2022-07-19T01:44:29;3.78;;;1.83;;
7529;SDS011;3806;52.270;10.544;2022-07-19T01:46:54;4.95;;;1.98;;
7529;SDS011;3806;52.270;10.544;2022-07-19T01:49:20;3.55;;;2.08;;
7529;SDS011;3806;52.270;10.544;2022-07-19T01:51:45;5.82;;;1.95;;
7529;SDS011;3806;52.270;10.544;2022-07-19T01:54:11;4.28;;;1.88;;
7529;SDS011;3806;52.270;10.544;2022-07-19T01:56:36;2.38;;;1.83;;
7529;SDS011;3806;52.270;10.544;2022-07-19T01:59:07;4.28;;;2.22;;
7529;SDS011;3806;52.270;10.544;2022-07-19T02:01:32;3.53;;;2.05;;
7529;SDS011;3806;52.270;10.544;2022-07-19T02:03:58;10.88;;;2.80;;
7529;SDS011;3806;52.270;10.544;2022-07-19T02:06:23;6.63;;;2.40;;
7529;SDS011;3806;52.270;10.544;2022-07-19T02:08:49;3.92;;;2.45;;
7529;SDS011;3806;52.270;10.544;2022-07-19T02:11:14;4.25;;;2.17;;
7529;SDS011;3806;52.270;10.544;2022-07-19T02:13:58;6.38;;;2.35;;
7529;SDS011;3806;52.270;10.544;2022-07-19T02:16:24;3.85;;;2.40;;
7529;SDS011;3806;52.270;10.544;2022-07-19T02:18:50;4.00;;;2.17;;
7529;SDS011;3806;52.270;10.544;2022-07-19T02:21:15;5.82;;;2.65;;
7529;SDS011;3806;52.270;10.544;2022-07-19T02:23:41;5.97;;;2.45;;
7529;SDS011;3806;52.270;10.544;2022-07-19T02:26:07;3.22;;;2.17;;
7529;SDS011;3806;52.270;10.544;2022-07-19T02:28:33;3.58;;;2.13;;
7529;SDS011;3806;52.270;10.544;2022-07-19T02:30:58;3.83;;;2.20;;
7529;SDS011;3806;52.270;10.544;2022-07-19T02:33:24;5.15;;;2.30;;
7529;SDS011;3806;52.270;10.544;2022-07-19T02:35:49;4.72;;;2.22;;
7529;SDS011;3806;52.270;10.544;2022-07-19T02:38:15;4.07;;;2.25;;
7529;SDS011;3806;52.270;10.544;2022-07-19T02:40:40;5.03;;;2.03;;
7529;SDS011;3806;52.270;10.544;2022-07-19T02:43:07;6.28;;;3.03;;
7529;SDS011;3806;52.270;10.544;2022-07-19T02:45:32;5.10;;;2.00;;
7529;SDS011;3806;52.270;10.544;2022-07-19T02:47:58;6.00;;;2.10;;
7529;SDS011;3806;52.270;10.544;2022-07-19T02:50:23;7.10;;;2.33;;
7529;SDS011;3806;52.270;10.544;2022-07-19T02:52:50;3.97;;;2.00;;
7529;SDS011;3806;52.270;10.544;2022-07-19T02:55:15;3.30;;;1.92;;
7529;SDS011;3806;52.270;10.544;2022-07-19T02:57:41;7.63;;;2.10;;
7529;SDS011;3806;52.270;10.544;2022-07-19T03:00:07;7.03;;;1.85;;
7529;SDS011;3806;52.270;10.544;2022-07-19T03:02:37;4.18;;;2.20;;
7529;SDS011;3806;52.270;10.544;2022-07-19T03:05:04;7.47;;;2.15;;
7529;SDS011;3806;52.270;10.544;2022-07-19T03:07:30;2.65;;;1.67;;
7529;SDS011;3806;52.270;10.544;2022-07-19T03:09:56;6.47;;;2.42;;
7529;SDS011;3806;52.270;10.544;2022-07-19T03:12:21;4.35;;;3.00;;
7529;SDS011;3806;52.270;10.544;2022-07-19T03:14:47;4.22;;;2.17;;
7529;SDS011;3806;52.270;10.544;2022-07-19T03:17:12;5.50;;;2.00;;
7529;SDS011;3806;52.270;10.544;2022-07-19T03:19:38;6.00;;;2.28;;
7529;SDS011;3806;52.270;10.544;2022-07-19T03:22:04;6.63;;;2.28;;
7529;SDS011;3806;52.270;10.544;2022-07-19T03:24:29;6.13;;;1.77;;
7529;SDS011;3806;52.270;10.544;2022-07-19T03:26:55;4.38;;;2.05;;
7529;SDS011;3806;52.270;10.544;2022-07-19T03:29:21;6.60;;;2.03;;
7529;SDS011;3806;52.270;10.544;2022-07-19T03:31:46;4.00;;;2.20;;
7529;SDS011;3806;52.270;10.544;2022-07-19T03:34:12;9.52;;;2.20;;
7529;SDS011;3806;52.270;10.544;2022-07-19T03:36:37;4.57;;;2.50;;
7529;SDS011;3806;52.270;10.544;2022-07-19T03:39:03;3.97;;;2.17;;
7529;SDS011;3806;52.270;10.544;2022-07-19T03:41:29;3.15;;;2.35;;
7529;SDS011;3806;52.270;10.544;2022-07-19T03:43:54;10.95;;;2.00;;
7529;SDS011;3806;52.270;10.544;2022-07-19T03:46:20;5.45;;;2.20;;
7529;SDS011;3806;52.270;10.544;2022-07-19T03:48:46;5.18;;;2.47;;
7529;SDS011;3806;52.270;10.544;2022-07-19T03:51:12;3.00;;;1.67;;
7529;SDS011;3806;52.270;10.544;2022-07-19T03:53:38;5.65;;;2.03;;
7529;SDS011;3806;52.270;10.544;2022-07-19T03:56:04;4.88;;;1.98;;
7529;SDS011;3806;52.270;10.544;2022-07-19T03:58:31;4.75;;;2.00;;
7529;SDS011;3806;52.270;10.544;2022-07-19T04:00:57;3.70;;;2.03;;
7529;SDS011;3806;52.270;10.544;2022-07-19T04:03:23;2.70;;;1.80;;
7529;SDS011;3806;52.270;10.544;2022-07-19T04:05:48;3.22;;;2.00;;
7529;SDS011;3806;52.270;10.544;2022-07-19T04:08:14;4.63;;;2.08;;
7529;SDS011;3806;52.270;10.544;2022-07-19T04:10:40;6.63;;;1.98;;
7529;SDS011;3806;52.270;10.544;2022-07-19T04:13:06;7.22;;;2.90;;
7529;SDS011;3806;52.270;10.544;2022-07-19T04:15:32;5.50;;;2.58;;
7529;SDS011;3806;52.270;10.544;2022-07-19T04:17:58;3.65;;;2.25;;
7529;SDS011;3806;52.270;10.544;2022-07-19T04:20:23;2.92;;;1.55;;
7529;SDS011;3806;52.270;10.544;2022-07-19T04:22:49;3.47;;;1.98;;
7529;SDS011;3806;52.270;10.544;2022-07-19T04:25:14;5.43;;;1.98;;
7529;SDS011;3806;52.270;10.544;2022-07-19T04:27:40;6.93;;;2.50;;
7529;SDS011;3806;52.270;10.544;2022-07-19T04:30:06;3.67;;;1.90;;
7529;SDS011;3806;52.270;10.544;2022-07-19T04:32:32;5.97;;;2.90;;
7529;SDS011;3806;52.270;10.544;2022-07-19T04:34:58;3.60;;;2.00;;
7529;SDS011;3806;52.270;10.544;2022-07-19T04:37:25;3.35;;;2.20;;
7529;SDS011;3806;52.270;10.544;2022-07-19T04:39:50;4.10;;;2.53;;
7529;SDS011;3806;52.270;10.544;2022-07-19T04:42:16;5.38;;;2.15;;
7529;SDS011;3806;52.270;10.544;2022-07-19T04:44:42;11.20;;;2.38;;
7529;SDS011;3806;52.270;10.544;2022-07-19T04:47:08;5.35;;;2.30;;
7529;SDS011;3806;52.270;10.544;2022-07-19T04:49:35;2.65;;;1.58;;
7529;SDS011;3806;52.270;10.544;2022-07-19T04:52:00;5.90;;;1.90;;
7529;SDS011;3806;52.270;10.544;2022-07-19T04:54:26;6.90;;;2.47;;
7529;SDS011;3806;52.270;10.544;2022-07-19T04:56:52;6.38;;;2.28;;
7529;SDS011;3806;52.270;10.544;2022-07-19T04:59:17;4.53;;;2.20;;
7529;SDS011;3806;52.270;10.544;2022-07-19T05:01:43;4.15;;;1.77;;
7529;SDS011;3806;52.270;10.544;2022-07-19T05:04:09;8.55;;;2.60;;
7529;SDS011;3806;52.270;10.544;2022-07-19T05:06:35;7.35;;;2.10;;
7529;SDS011;3806;52.270;10.544;2022-07-19T05:09:02;6.53;;;2.58;;
7529;SDS011;3806;52.270;10.544;2022-07-19T05:11:28;4.95;;;2.22;;
7529;SDS011;3806;52.270;10.544;2022-07-19T05:13:54;4.90;;;2.22;;
7529;SDS011;3806;52.270;10.544;2022-07-19T05:16:19;8.07;;;2.45;;
7529;SDS011;3806;52.270;10.544;2022-07-19T05:18:45;5.20;;;2.50;;
7529;SDS011;3806;52.270;10.544;2022-07-19T05:21:10;5.53;;;2.00;;
7529;SDS011;3806;52.270;10.544;2022-07-19T05:23:36;3.97;;;1.90;;
7529;SDS011;3806;52.270;10.544;2022-07-19T05:26:02;8.10;;;1.88;;
7529;SDS011;3806;52.270;10.544;2022-07-19T05:28:27;3.88;;;2.03;;
7529;SDS011;3806;52.270;10.544;2022-07-19T05:30:53;7.03;;;2.38;;
7529;SDS011;3806;52.270;10.544;2022-07-19T05:33:18;9.20;;;2.47;;
7529;SDS011;3806;52.270;10.544;2022-07-19T05:35:44;5.60;;;2.47;;
7529;SDS011;3806;52.270;10.544;2022-07-19T05:38:10;7.93;;;2.60;;
7529;SDS011;3806;52.270;10.544;2022-07-19T05:40:35;9.10;;;2.70;;
7529;SDS011;3806;52.270;10.544;2022-07-19T05:43:01;10.63;;;3.28;;
7529;SDS011;3806;52.270;10.544;2022-07-19T05:45:27;7.00;;;2.22;;
7529;SDS011;3806;52.270;10.544;2022-07-19T05:47:52;4.18;;;2.13;;
7529;SDS011;3806;52.270;10.544;2022-07-19T05:50:18;5.90;;;2.17;;
7529;SDS011;3806;52.270;10.544;2022-07-19T05:52:44;5.82;;;2.88;;
7529;SDS011;3806;52.270;10.544;2022-07-19T05:55:09;8.38;;;2.42;;
7529;SDS011;3806;52.270;10.544;2022-07-19T05:57:35;5.22;;;2.20;;
7529;SDS011;3806;52.270;10.544;2022-07-19T06:00:00;3.08;;;2.00;;
7529;SDS011;3806;52.270;10.544;2022-07-19T06:02:27;11.25;;;2.63;;
7529;SDS011;3806;52.270;10.544;2022-07-19T06:04:54;8.68;;;2.63;;
7529;SDS011;3806;52.270;10.544;2022-07-19T06:07:20;4.60;;;2.38;;
7529;SDS011;3806;52.270;10.544;2022-07-19T06:09:45;7.88;;;2.45;;
7529;SDS011;3806;52.270;10.544;2022-07-19T06:12:11;5.18;;;2.00;;
7529;SDS011;3806;52.270;10.544;2022-07-19T06:14:36;5.88;;;2.47;;
7529;SDS011;3806;52.270;10.544;2022-07-19T06:17:02;5.93;;;2.13;;
7529;SDS011;3806;52.270;10.544;2022-07-19T06:19:28;4.82;;;2.00;;
7529;SDS011;3806;52.270;10.544;2022-07-19T06:21:53;4.93;;;2.00;;
7529;SDS011;3806;52.270;10.544;2022-07-19T06:24:19;7.80;;;2.17;;
7529;SDS011;3806;52.270;10.544;2022-07-19T06:26:45;4.50;;;2.20;;
7529;SDS011;3806;52.270;10.544;2022-07-19T06:29:10;15.07;;;2.60;;
7529;SDS011;3806;52.270;10.544;2022-07-19T06:31:36;6.05;;;2.08;;
7529;SDS011;3806;52.270;10.544;2022-07-19T06:34:01;5.82;;;2.17;;
7529;SDS011;3806;52.270;10.544;2022-07-19T06:36:27;5.35;;;2.10;;
7529;SDS011;3806;52.270;10.544;2022-07-19T06:38:53;7.60;;;2.67;;
7529;SDS011;3806;52.270;10.544;2022-07-19T06:41:18;9.13;;;2.45;;
7529;SDS011;3806;52.270;10.544;2022-07-19T06:43:44;5.60;;;2.65;;
7529;SDS011;3806;52.270;10.544;2022-07-19T06:46:10;8.30;;;2.53;;
7529;SDS011;3806;52.270;10.544;2022-07-19T06:48:36;5.78;;;2.20;;
7529;SDS011;3806;52.270;10.544;2022-07-19T06:51:02;8.15;;;3.05;;
7529;SDS011;3806;52.270;10.544;2022-07-19T06:53:30;7.25;;;2.75;;
7529;SDS011;3806;52.270;10.544;2022-07-19T06:55:55;7.35;;;2.55;;
7529;SDS011;3806;52.270;10.544;2022-07-19T06:58:21;3.70;;;2.28;;
7529;SDS011;3806;52.270;10.544;2022-07-19T07:00:46;7.05;;;2.35;;
7529;SDS011;3806;52.270;10.544;2022-07-19T07:03:14;5.50;;;2.70;;
7529;SDS011;3806;52.270;10.544;2022-07-19T07:05:40;4.57;;;3.00;;
7529;SDS011;3806;52.270;10.544;2022-07-19T07:08:06;4.53;;;2.28;;
7529;SDS011;3806;52.270;10.544;2022-07-19T07:10:32;5.22;;;2.35;;
7529;SDS011;3806;52.270;10.544;2022-07-19T07:12:57;5.15;;;2.22;;
7529;SDS011;3806;52.270;10.544;2022-07-19T07:15:23;7.82;;;2.35;;
7529;SDS011;3806;52.270;10.544;2022-07-19T07:17:49;6.35;;;2.13;;
7529;SDS011;3806;52.270;10.544;2022-07-19T07:20:14;11.77;;;2.20;;
7529;SDS011;3806;52.270;10.544;2022-07-19T07:22:40;3.65;;;2.47;;
7529;SDS011;3806;52.270;10.544;2022-07-19T07:25:06;4.68;;;2.13;;
7529;SDS011;3806;52.270;10.544;2022-07-19T07:27:32;3.17;;;2.00;;
7529;SDS011;3806;52.270;10.544;2022-07-19T07:29:57;5.43;;;2.10;;
7529;SDS011;3806;52.270;10.544;2022-07-19T07:32:23;8.90;;;2.83;;
7529;SDS011;3806;52.270;10.544;2022-07-19T07:34:51;4.88;;;2.10;;
7529;SDS011;3806;52.270;10.544;2022-07-19T07:37:17;6.40;;;2.28;;
7529;SDS011;3806;52.270;10.544;2022-07-19T07:39:43;4.20;;;2.03;;
7529;SDS011;3806;52.270;10.544;2022-07-19T07:42:08;6.88;;;2.55;;
7529;SDS011;3806;52.270;10.544;2022-07-19T07:44:34;5.43;;;2.30;;
7529;SDS011;3806;52.270;10.544;2022-07-19T07:47:00;2.75;;;1.95;;
7529;SDS011;3806;52.270;10.544;2022-07-19T07:49:25;5.13;;;1.95;;
7529;SDS011;3806;52.270;10.544;2022-07-19T07:51:51;5.40;;;2.08;;
7529;SDS011;3806;52.270;10.544;2022-07-19T07:54:17;8.68;;;2.30;;
7529;SDS011;3806;52.270;10.544;2022-07-19T07:56:42;9.65;;;2.65;;
7529;SDS011;3806;52.270;10.544;2022-07-19T07:59:08;2.85;;;1.95;;
7529;SDS011;3806;52.270;10.544;2022-07-19T08:01:34;6.55;;;2.38;;
7529;SDS011;3806;52.270;10.544;2022-07-19T08:04:02;5.75;;;2.13;;
7529;SDS011;3806;52.270;10.544;2022-07-19T08:06:28;4.75;;;2.28;;
7529;SDS011;3806;52.270;10.544;2022-07-19T08:08:54;7.03;;;2.05;;
7529;SDS011;3806;52.270;10.544;2022-07-19T08:11:20;3.22;;;2.28;;
7529;SDS011;3806;52.270;10.544;2022-07-19T08:13:46;5.78;;;2.00;;
7529;SDS011;3806;52.270;10.544;2022-07-19T08:16:11;7.88;;;2.00;;
7529;SDS011;3806;52.270;10.544;2022-07-19T08:18:37;2.53;;;1.70;;
7529;SDS011;3806;52.270;10.544;2022-07-19T08:21:03;7.15;;;2.30;;
7529;SDS011;3806;52.270;10.544;2022-07-19T08:23:28;4.82;;;1.92;;
7529;SDS011;3806;52.270;10.544;2022-07-19T08:25:54;4.95;;;2.30;;
7529;SDS011;3806;52.270;10.544;2022-07-19T08:28:20;4.38;;;1.83;;
7529;SDS011;3806;52.270;10.544;2022-07-19T08:30:45;3.22;;;2.13;;
7529;SDS011;3806;52.270;10.544;2022-07-19T08:33:11;3.70;;;1.98;;
7529;SDS011;3806;52.270;10.544;2022-07-19T08:35:36;7.35;;;2.03;;
7529;SDS011;3806;52.270;10.544;2022-07-19T08:38:02;5.88;;;2.58;;
7529;SDS011;3806;52.270;10.544;2022-07-19T08:40:28;4.45;;;2.25;;
7529;SDS011;3806;52.270;10.544;2022-07-19T08:42:58;5.72;;;2.20;;
7529;SDS011;3806;52.270;10.544;2022-07-19T08:45:23;2.88;;;2.10;;
7529;SDS011;3806;52.270;10.544;2022-07-19T08:47:50;4.30;;;2.25;;
7529;SDS011;3806;52.270;10.544;2022-07-19T08:50:17;6.97;;;1.90;;
7529;SDS011;3806;52.270;10.544;2022-07-19T08:52:42;5.18;;;2.20;;
7529;SDS011;3806;52.270;10.544;2022-07-19T08:55:08;5.25;;;2.10;;
7529;SDS011;3806;52.270;10.544;2022-07-19T08:57:35;2.88;;;2.17;;
7529;SDS011;3806;52.270;10.544;2022-07-19T09:00:19;7.30;;;2.13;;
7529;SDS011;3806;52.270;10.544;2022-07-19T09:05:42;4.70;;;1.98;;
7529;SDS011;3806;52.270;10.544;2022-07-19T09:08:10;2.90;;;1.67;;
7529;SDS011;3806;52.270;10.544;2022-07-19T09:10:41;4.25;;;2.20;;
7529;SDS011;3806;52.270;10.544;2022-07-19T09:13:31;3.40;;;1.55;;
7529;SDS011;3806;52.270;10.544;2022-07-19T09:15:57;3.42;;;1.52;;
7529;SDS011;3806;52.270;10.544;2022-07-19T09:18:28;3.45;;;1.70;;
7529;SDS011;3806;52.270;10.544;2022-07-19T09:21:00;3.20;;;1.58;;
7529;SDS011;3806;52.270;10.544;2022-07-19T09:23:27;4.75;;;1.77;;
7529;SDS011;3806;52.270;10.544;2022-07-19T09:25:54;4.22;;;1.73;;
7529;SDS011;3806;52.270;10.544;2022-07-19T09:28:29;3.08;;;1.92;;
7529;SDS011;3806;52.270;10.544;2022-07-19T09:30:57;5.35;;;2.00;;
7529;SDS011;3806;52.270;10.544;2022-07-19T09:33:25;1.90;;;1.42;;
7529;SDS011;3806;52.270;10.544;2022-07-19T09:35:57;8.30;;;2.15;;
7529;SDS011;3806;52.270;10.544;2022-07-19T09:41:38;3.47;;;1.63;;
7529;SDS011;3806;52.270;10.544;2022-07-19T09:43:53;5.03;;;1.80;;
7529;SDS011;3806;52.270;10.544;2022-07-19T09:46:28;3.70;;;1.35;;
7529;SDS011;3806;52.270;10.544;2022-07-19T09:49:05;3.95;;;1.75;;
7529;SDS011;3806;52.270;10.544;2022-07-19T09:51:38;2.22;;;1.60;;
7529;SDS011;3806;52.270;10.544;2022-07-19T09:54:06;3.13;;;1.88;;
7529;SDS011;3806;52.270;10.544;2022-07-19T09:56:32;2.45;;;1.70;;
7529;SDS011;3806;52.270;10.544;2022-07-19T09:58:58;3.03;;;1.60;;
7529;SDS011;3806;52.270;10.544;2022-07-19T10:01:25;3.33;;;1.35;;
7529;SDS011;3806;52.270;10.544;2022-07-19T10:03:55;2.47;;;1.20;;
7529;SDS011;3806;52.270;10.544;2022-07-19T10:06:23;3.20;;;1.30;;
7529;SDS011;3806;52.270;10.544;2022-07-19T10:08:50;3.15;;;1.30;;
7529;SDS011;3806;52.270;10.544;2022-07-19T10:11:17;3.50;;;1.52;;
7529;SDS011;3806;52.270;10.544;2022-07-19T10:13:43;3.75;;;1.50;;
7529;SDS011;3806;52.270;10.544;2022-07-19T10:16:13;2.10;;;0.90;;
7529;SDS011;3806;52.270;10.544;2022-07-19T10:18:44;1.88;;;1.20;;
7529;SDS011;3806;52.270;10.544;2022-07-19T10:21:27;3.05;;;1.33;;
7529;SDS011;3806;52.270;10.544;2022-07-19T10:23:54;2.85;;;1.25;;
7529;SDS011;3806;52.270;10.544;2022-07-19T10:26:33;2.13;;;1.25;;
7529;SDS011;3806;52.270;10.544;2022-07-19T10:31:39;1.52;;;0.95;;
7529;SDS011;3806;52.270;10.544;2022-07-19T10:34:07;0.95;;;0.80;;
7529;SDS011;3806;52.270;10.544;2022-07-19T10:36:38;1.92;;;0.90;;
7529;SDS011;3806;52.270;10.544;2022-07-19T10:45:08;3.17;;;1.10;;
7529;SDS011;3806;52.270;10.544;2022-07-19T10:47:21;3.00;;;0.90;;
7529;SDS011;3806;52.270;10.544;2022-07-19T10:49:48;2.45;;;1.08;;
7529;SDS011;3806;52.270;10.544;2022-07-19T10:57:43;1.58;;;1.05;;
7529;SDS011;3806;52.270;10.544;2022-07-19T11:00:44;2.72;;;0.85;;
7529;SDS011;3806;52.270;10.544;2022-07-19T11:05:48;2.50;;;1.30;;
7529;SDS011;3806;52.270;10.544;2022-07-19T11:08:31;1.67;;;0.95;;
7529;SDS011;3806;52.270;10.544;2022-07-19T11:13:35;2.05;;;1.13;;
7529;SDS011;3806;52.270;10.544;2022-07-19T11:16:01;3.20;;;1.45;;
7529;SDS011;3806;52.270;10.544;2022-07-19T11:18:31;1.30;;;0.95;;
7529;SDS011;3806;52.270;10.544;2022-07-19T11:20:58;1.70;;;1.45;;
7529;SDS011;3806;52.270;10.544;2022-07-19T11:23:29;7.88;;;1.40;;
7529;SDS011;3806;52.270;10.544;2022-07-19T11:28:36;4.93;;;1.20;;
7529;SDS011;3806;52.270;10.544;2022-07-19T11:31:36;2.83;;;1.45;;
7529;SDS011;3806;52.270;10.544;2022-07-19T11:33:55;3.58;;;1.38;;
7529;SDS011;3806;52.270;10.544;2022-07-19T11:36:21;4.13;;;1.63;;
7529;SDS011;3806;52.270;10.544;2022-07-19T11:41:15;3.35;;;1.98;;
7529;SDS011;3806;52.270;10.544;2022-07-19T11:43:59;2.63;;;1.70;;
7529;SDS011;3806;52.270;10.544;2022-07-19T11:46:37;3.88;;;1.83;;
7529;SDS011;3806;52.270;10.544;2022-07-19T11:49:06;2.97;;;1.80;;
7529;SDS011;3806;52.270;10.544;2022-07-19T11:51:33;5.32;;;2.00;;
7529;SDS011;3806;52.270;10.544;2022-07-19T11:53:59;3.67;;;1.98;;
7529;SDS011;3806;52.270;10.544;2022-07-19T11:56:27;4.00;;;1.70;;
7529;SDS011;3806;52.270;10.544;2022-07-19T11:58:55;3.38;;;1.85;;
7529;SDS011;3806;52.270;10.544;2022-07-19T12:01:24;4.75;;;1.83;;
7529;SDS011;3806;52.270;10.544;2022-07-19T12:03:58;4.85;;;1.85;;
7529;SDS011;3806;52.270;10.544;2022-07-19T12:06:36;3.80;;;1.75;;
7529;SDS011;3806;52.270;10.544;2022-07-19T12:09:07;4.03;;;1.77;;
7529;SDS011;3806;52.270;10.544;2022-07-19T12:11:38;3.60;;;1.88;;
7529;SDS011;3806;52.270;10.544;2022-07-19T12:14:22;3.60;;;1.58;;
7529;SDS011;3806;52.270;10.544;2022-07-19T12:16:48;4.38;;;1.67;;
7529;SDS011;3806;52.270;10.544;2022-07-19T12:19:15;3.78;;;1.60;;
7529;SDS011;3806;52.270;10.544;2022-07-19T12:21:44;3.72;;;1.95;;
7529;SDS011;3806;52.270;10.544;2022-07-19T12:26:42;5.05;;;1.75;;
7529;SDS011;3806;52.270;10.544;2022-07-19T12:29:35;5.43;;;1.83;;
7529;SDS011;3806;52.270;10.544;2022-07-19T12:32:10;5.80;;;1.80;;
7529;SDS011;3806;52.270;10.544;2022-07-19T12:34:50;3.03;;;1.58;;
7529;SDS011;3806;52.270;10.544;2022-07-19T12:45:22;3.85;;;1.63;;
7529;SDS011;3806;52.270;10.544;2022-07-19T12:47:49;4.90;;;1.65;;
7529;SDS011;3806;52.270;10.544;2022-07-19T12:50:20;3.83;;;1.83;;
7529;SDS011;3806;52.270;10.544;2022-07-19T12:52:45;3.83;;;1.63;;
7529;SDS011;3806;52.270;10.544;2022-07-19T12:55:11;3.88;;;2.10;;
7529;SDS011;3806;52.270;10.544;2022-07-19T12:57:37;4.68;;;1.73;;
7529;SDS011;3806;52.270;10.544;2022-07-19T13:00:05;7.13;;;1.63;;
7529;SDS011;3806;52.270;10.544;2022-07-19T13:02:31;3.85;;;1.73;;
7529;SDS011;3806;52.270;10.544;2022-07-19T13:04:57;3.50;;;1.67;;
7529;SDS011;3806;52.270;10.544;2022-07-19T13:07:22;3.63;;;1.80;;
7529;SDS011;3806;52.270;10.544;2022-07-19T13:09:48;4.18;;;1.60;;
7529;SDS011;3806;52.270;10.544;2022-07-19T13:12:13;4.70;;;1.80;;
7529;SDS011;3806;52.270;10.544;2022-07-19T13:14:39;4.25;;;1.77;;
7529;SDS011;3806;52.270;10.544;2022-07-19T13:17:05;3.33;;;1.60;;
7529;SDS011;3806;52.270;10.544;2022-07-19T13:19:32;12.23;;;2.03;;
7529;SDS011;3806;52.270;10.544;2022-07-19T13:21:58;2.22;;;1.65;;
7529;SDS011;3806;52.270;10.544;2022-07-19T13:24:24;5.30;;;1.95;;
7529;SDS011;3806;52.270;10.544;2022-07-19T13:26:49;5.13;;;1.60;;
7529;SDS011;3806;52.270;10.544;2022-07-19T13:29:15;5.93;;;1.67;;
7529;SDS011;3806;52.270;10.544;2022-07-19T13:31:41;3.28;;;1.95;;
7529;SDS011;3806;52.270;10.544;2022-07-19T13:34:07;5.47;;;1.77;;
7529;SDS011;3806;52.270;10.544;2022-07-19T13:36:33;5.35;;;1.92;;
7529;SDS011;3806;52.270;10.544;2022-07-19T13:38:59;5.05;;;1.75;;
7529;SDS011;3806;52.270;10.544;2022-07-19T13:41:24;1.80;;;1.30;;
7529;SDS011;3806;52.270;10.544;2022-07-19T13:43:50;2.30;;;1.40;;
7529;SDS011;3806;52.270;10.544;2022-07-19T13:46:18;3.17;;;1.35;;
7529;SDS011;3806;52.270;10.544;2022-07-19T13:48:45;3.30;;;1.50;;
7529;SDS011;3806;52.270;10.544;2022-07-19T13:51:10;2.60;;;1.50;;
7529;SDS011;3806;52.270;10.544;2022-07-19T13:53:36;2.50;;;1.52;;
7529;SDS011;3806;52.270;10.544;2022-07-19T13:56:02;6.13;;;1.67;;
7529;SDS011;3806;52.270;10.544;2022-07-19T13:58:29;3.15;;;1.38;;
7529;SDS011;3806;52.270;10.544;2022-07-19T14:00:54;4.25;;;1.70;;
7529;SDS011;3806;52.270;10.544;2022-07-19T14:03:20;3.75;;;1.50;;
7529;SDS011;3806;52.270;10.544;2022-07-19T14:05:46;3.88;;;1.67;;
7529;SDS011;3806;52.270;10.544;2022-07-19T14:08:13;3.25;;;1.42;;
7529;SDS011;3806;52.270;10.544;2022-07-19T14:10:39;4.18;;;1.30;;
7529;SDS011;3806;52.270;10.544;2022-07-19T14:13:06;2.20;;;1.38;;
7529;SDS011;3806;52.270;10.544;2022-07-19T14:15:31;4.40;;;1.65;;
7529;SDS011;3806;52.270;10.544;2022-07-19T14:17:57;3.38;;;1.30;;
7529;SDS011;3806;52.270;10.544;2022-07-19T14:20:23;2.58;;;1.50;;
7529;SDS011;3806;52.270;10.544;2022-07-19T14:22:49;2.97;;;1.30;;
7529;SDS011;3806;52.270;10.544;2022-07-19T14:25:15;4.22;;;1.30;;
7529;SDS011;3806;52.270;10.544;2022-07-19T14:27:41;3.92;;;1.52;;
7529;SDS011;3806;52.270;10.544;2022-07-19T14:30:07;3.92;;;1.30;;
7529;SDS011;3806;52.270;10.544;2022-07-19T14:32:33;1.52;;;1.05;;
7529;SDS011;3806;52.270;10.544;2022-07-19T14:34:59;2.03;;;1.08;;
7529;SDS011;3806;52.270;10.544;2022-07-19T14:37:25;2.15;;;1.20;;
7529;SDS011;3806;52.270;10.544;2022-07-19T14:39:50;2.78;;;1.45;;
7529;SDS011;3806;52.270;10.544;2022-07-19T14:42:16;4.43;;;1.48;;
7529;SDS011;3806;52.270;10.544;2022-07-19T14:44:42;4.00;;;1.60;;
7529;SDS011;3806;52.270;10.544;2022-07-19T14:47:07;2.33;;;1.23;;
7529;SDS011;3806;52.270;10.544;2022-07-19T14:49:34;6.35;;;1.65;;
7529;SDS011;3806;52.270;10.544;2022-07-19T14:52:00;1.85;;;1.20;;
7529;SDS011;3806;52.270;10.544;2022-07-19T14:54:26;3.45;;;1.38;;
7529;SDS011;3806;52.270;10.544;2022-07-19T14:56:52;1.83;;;1.17;;
7529;SDS011;3806;52.270;10.544;2022-07-19T14:59:18;5.93;;;1.52;;
7529;SDS011;3806;52.270;10.544;2022-07-19T15:01:48;3.85;;;0.95;;
7529;SDS011;3806;52.270;10.544;2022-07-19T15:04:15;1.95;;;1.08;;
7529;SDS011;3806;52.270;10.544;2022-07-19T15:06:41;3.22;;;1.23;;
7529;SDS011;3806;52.270;10.544;2022-07-19T15:09:06;2.20;;;1.25;;
7529;SDS011;3806;52.270;10.544;2022-07-19T15:11:32;4.63;;;1.55;;
7529;SDS011;3806;52.270;10.544;2022-07-19T15:14:01;2.28;;;1.20;;
7529;SDS011;3806;52.270;10.544;2022-07-19T15:16:27;4.57;;;1.33;;
7529;SDS011;3806;52.270;10.544;2022-07-19T15:18:53;1.70;;;1.15;;
7529;SDS011;3806;52.270;10.544;2022-07-19T15:21:19;2.13;;;1.30;;
7529;SDS011;3806;52.270;10.544;2022-07-19T15:23:45;4.60;;;1.40;;
7529;SDS011;3806;52.270;10.544;2022-07-19T15:26:11;3.03;;;1.40;;
7529;SDS011;3806;52.270;10.544;2022-07-19T15:28:37;3.63;;;1.20;;
7529;SDS011;3806;52.270;10.544;2022-07-19T15:31:03;3.15;;;1.15;;
7529;SDS011;3806;52.270;10.544;2022-07-19T15:33:30;3.05;;;1.63;;
7529;SDS011;3806;52.270;10.544;2022-07-19T15:35:56;2.65;;;1.23;;
7529;SDS011;3806;52.270;10.544;2022-07-19T15:38:22;7.63;;;1.80;;
7529;SDS011;3806;52.270;10.544;2022-07-19T15:40:47;4.07;;;1.40;;